createdAt,value
2018-01-25T00:00:56.005Z,22.60
2018-01-25T00:03:22.252Z,20.33
2018-01-25T00:05:48.507Z,21.12
2018-01-25T00:08:14.737Z,22.35
2018-01-25T00:10:40.999Z,20.00
2018-01-25T00:13:07.236Z,26.42
2018-01-25T00:15:33.477Z,14.60
2018-01-25T00:17:59.728Z,15.35
2018-01-25T00:20:26.710Z,14.93
2018-01-25T00:22:53.098Z,20.90
2018-01-25T00:25:19.370Z,23.70
2018-01-25T00:27:45.668Z,22.17
2018-01-25T00:30:12.656Z,22.52
2018-01-25T00:32:38.917Z,23.27
2018-01-25T00:35:05.162Z,30.77
2018-01-25T00:37:31.400Z,23.45
2018-01-25T00:39:57.647Z,21.87
2018-01-25T00:42:23.891Z,26.35
2018-01-25T00:44:50.140Z,25.42
2018-01-25T00:47:16.359Z,26.37
2018-01-25T00:49:42.619Z,21.05
2018-01-25T00:52:08.874Z,20.62
2018-01-25T00:54:35.902Z,17.62
2018-01-25T00:57:02.143Z,19.37
2018-01-25T00:59:28.396Z,19.87
2018-01-25T01:01:54.684Z,18.45
2018-01-25T01:04:20.941Z,15.98
2018-01-25T01:06:47.197Z,22.15
2018-01-25T01:09:13.473Z,18.98
2018-01-25T01:11:39.757Z,15.43
2018-01-25T01:14:05.990Z,17.12
2018-01-25T01:16:32.227Z,19.08
2018-01-25T01:18:58.492Z,18.65
2018-01-25T01:21:24.762Z,23.05
2018-01-25T01:23:51.112Z,19.55
2018-01-25T01:26:17.361Z,19.92
2018-01-25T01:28:44.598Z,25.60
2018-01-25T01:31:10.851Z,16.25
2018-01-25T01:33:37.098Z,19.33
2018-01-25T01:36:03.357Z,19.77
2018-01-25T01:38:30.328Z,29.40
2018-01-25T01:40:56.590Z,22.55
2018-01-25T01:43:22.820Z,21.20
2018-01-25T01:45:49.088Z,16.30
2018-01-25T01:48:15.356Z,18.90
2018-01-25T01:50:41.597Z,18.05
2018-01-25T01:53:07.831Z,18.85
2018-01-25T01:55:34.091Z,23.55
2018-01-25T01:58:01.073Z,19.73
2018-01-25T02:00:27.359Z,24.42
2018-01-25T02:02:53.616Z,23.52
2018-01-25T02:05:19.882Z,26.25
2018-01-25T02:07:46.859Z,32.08
2018-01-25T02:10:13.099Z,22.25
2018-01-25T02:12:39.386Z,29.35
2018-01-25T02:15:05.650Z,25.20
2018-01-25T02:17:31.885Z,24.12
2018-01-25T02:19:58.161Z,21.08
2018-01-25T02:22:24.408Z,22.77
2018-01-25T02:24:50.744Z,28.42
2018-01-25T02:27:17.009Z,21.58
2018-01-25T02:29:43.265Z,21.58
2018-01-25T02:32:09.543Z,20.25
2018-01-25T02:34:35.779Z,18.48
2018-01-25T02:37:02.037Z,25.12
2018-01-25T02:39:29.083Z,17.10
2018-01-25T02:41:56.109Z,20.70
2018-01-25T02:44:22.397Z,15.18
2018-01-25T02:46:49.368Z,14.82
2018-01-25T02:49:15.609Z,17.73
2018-01-25T02:51:41.868Z,15.77
2018-01-25T02:54:08.124Z,16.73
2018-01-25T02:56:34.380Z,14.32
2018-01-25T02:59:00.661Z,21.75
2018-01-25T03:01:27.620Z,15.75
2018-01-25T03:03:53.881Z,17.50
2018-01-25T03:06:20.135Z,14.38
2018-01-25T03:08:46.377Z,13.40
2018-01-25T03:11:12.665Z,24.30
2018-01-25T03:13:38.903Z,18.60
2018-01-25T03:16:05.472Z,16.20
2018-01-25T03:18:32.446Z,16.83
2018-01-25T03:20:58.672Z,17.52
2018-01-25T03:23:25.730Z,14.60
2018-01-25T03:25:52.720Z,17.17
2018-01-25T03:28:18.964Z,13.48
2018-01-25T03:30:45.203Z,17.70
2018-01-25T03:33:11.487Z,18.08
2018-01-25T03:35:37.735Z,18.62
2018-01-25T03:38:03.978Z,17.62
2018-01-25T03:40:30.994Z,18.33
2018-01-25T03:42:57.252Z,15.43
2018-01-25T03:45:24.293Z,12.75
2018-01-25T03:47:50.540Z,11.85
2018-01-25T03:50:16.807Z,16.30
2018-01-25T03:52:43.056Z,13.35
2018-01-25T03:55:09.321Z,18.83
2018-01-25T03:57:35.579Z,16.17
2018-01-25T04:00:01.844Z,17.15
2018-01-25T04:02:28.115Z,15.65
2018-01-25T04:04:54.351Z,15.30
2018-01-25T04:07:20.910Z,12.02
2018-01-25T04:09:47.910Z,13.48
2018-01-25T04:12:14.152Z,14.90
2018-01-25T04:14:40.391Z,15.85
2018-01-25T04:17:06.628Z,12.00
2018-01-25T04:19:32.909Z,13.32
2018-01-25T04:21:59.133Z,14.05
2018-01-25T04:24:25.717Z,10.95
2018-01-25T04:26:51.986Z,9.93
2018-01-25T04:29:18.256Z,10.90
2018-01-25T04:31:44.500Z,16.00
2018-01-25T04:34:10.758Z,15.38
2018-01-25T04:36:37.023Z,9.45
2018-01-25T04:39:03.331Z,16.27
2018-01-25T04:41:29.575Z,12.77
2018-01-25T04:43:56.601Z,11.30
2018-01-25T04:46:22.838Z,11.52
2018-01-25T04:48:49.074Z,14.35
2018-01-25T04:51:15.311Z,16.83
2018-01-25T04:53:41.931Z,13.07
2018-01-25T04:56:08.190Z,12.23
2018-01-25T04:58:35.158Z,10.73
2018-01-25T05:01:01.441Z,13.35
2018-01-25T05:03:27.687Z,15.13
2018-01-25T05:05:53.938Z,17.30
2018-01-25T05:08:20.196Z,13.77
2018-01-25T05:10:46.420Z,16.25
2018-01-25T05:13:12.935Z,17.05
2018-01-25T05:15:39.168Z,15.07
2018-01-25T05:18:05.458Z,12.80
2018-01-25T05:20:31.734Z,12.00
2018-01-25T05:22:58.073Z,12.85
2018-01-25T05:25:24.332Z,14.02
2018-01-25T05:27:50.653Z,20.35
2018-01-25T05:30:17.628Z,15.60
2018-01-25T05:32:43.913Z,14.57
2018-01-25T05:35:10.156Z,13.45
2018-01-25T05:37:36.376Z,16.15
2018-01-25T05:40:02.681Z,13.50
2018-01-25T05:42:28.945Z,17.12
2018-01-25T05:44:55.213Z,16.15
2018-01-25T05:47:21.475Z,11.20
2018-01-25T05:49:47.735Z,19.00
2018-01-25T05:52:14.699Z,24.05
2018-01-25T05:54:40.951Z,22.30
2018-01-25T05:57:07.205Z,19.62
2018-01-25T05:59:33.418Z,22.15
2018-01-25T06:02:00.427Z,19.92
2018-01-25T06:04:26.673Z,17.35
2018-01-25T06:06:52.934Z,16.98
2018-01-25T06:09:26.240Z,14.55
2018-01-25T06:11:52.524Z,14.30
2018-01-25T06:14:18.763Z,12.80
2018-01-25T06:16:44.999Z,9.88
2018-01-25T06:19:11.252Z,19.02
2018-01-25T06:21:37.553Z,16.23
2018-01-25T06:24:03.826Z,15.15
2018-01-25T06:26:30.172Z,10.10
2018-01-25T06:28:56.510Z,13.18
2018-01-25T06:31:22.813Z,16.33
2018-01-25T06:33:49.092Z,13.43
2018-01-25T06:36:15.383Z,15.90
2018-01-25T06:38:41.620Z,14.70
2018-01-25T06:41:07.884Z,13.20
2018-01-25T06:43:34.143Z,16.73
2018-01-25T06:46:01.138Z,13.68
2018-01-25T06:48:27.421Z,20.10
2018-01-25T06:50:54.422Z,18.67
2018-01-25T06:53:20.663Z,20.02
2018-01-25T06:55:46.904Z,19.27
2018-01-25T06:58:13.171Z,26.08
2018-01-25T07:00:39.435Z,33.17
2018-01-25T07:03:05.717Z,21.65
2018-01-25T07:05:31.948Z,21.35
2018-01-25T07:07:58.158Z,20.42
2018-01-25T07:10:24.468Z,19.05
2018-01-25T07:12:50.760Z,26.62
2018-01-25T07:15:17.758Z,15.90
2018-01-25T07:17:44.013Z,16.65
2018-01-25T07:20:10.238Z,19.80
2018-01-25T07:22:36.501Z,14.02
2018-01-25T07:25:02.790Z,17.25
2018-01-25T07:27:29.809Z,23.70
2018-01-25T07:29:56.050Z,28.90
2018-01-25T07:32:22.277Z,16.60
2018-01-25T07:34:48.536Z,19.35
2018-01-25T07:37:14.793Z,17.77
2018-01-25T07:39:41.057Z,17.95
2018-01-25T07:42:07.295Z,18.23
2018-01-25T07:44:33.565Z,19.08
2018-01-25T07:46:59.807Z,17.25
2018-01-25T07:49:26.058Z,16.10
2018-01-25T07:51:52.323Z,16.65
2018-01-25T07:54:18.598Z,15.38
2018-01-25T07:56:45.617Z,19.40
2018-01-25T07:59:11.865Z,15.15
2018-01-25T08:01:38.122Z,20.73
2018-01-25T08:04:04.390Z,19.02
2018-01-25T08:06:30.643Z,17.95
2018-01-25T08:08:56.907Z,22.23
2018-01-25T08:11:23.913Z,21.80
2018-01-25T08:13:50.168Z,23.52
2018-01-25T08:16:22.380Z,13.18
2018-01-25T08:18:48.640Z,16.15
2018-01-25T08:21:14.914Z,14.80
2018-01-25T08:23:41.923Z,35.05
2018-01-25T08:26:08.227Z,21.95
2018-01-25T08:28:34.478Z,19.45
2018-01-25T08:31:00.723Z,16.85
2018-01-25T08:33:26.993Z,17.30
2018-01-25T08:35:53.259Z,15.38
2018-01-25T08:38:19.529Z,15.25
2018-01-25T08:40:46.562Z,14.45
2018-01-25T08:43:12.794Z,18.25
2018-01-25T08:45:39.053Z,17.37
2018-01-25T08:48:06.055Z,15.10
2018-01-25T08:50:32.290Z,14.87
2018-01-25T08:52:58.547Z,16.55
2018-01-25T08:55:24.801Z,13.43
2018-01-25T08:57:51.067Z,18.58
2018-01-25T09:00:17.337Z,23.33
2018-01-25T09:02:43.577Z,16.08
2018-01-25T09:05:09.852Z,19.15
2018-01-25T09:07:36.077Z,13.27
2018-01-25T09:10:02.353Z,14.38
2018-01-25T09:12:28.677Z,14.27
2018-01-25T09:14:54.937Z,15.70
2018-01-25T09:17:21.192Z,28.75
2018-01-25T09:19:47.442Z,11.00
2018-01-25T09:22:13.688Z,12.05
2018-01-25T09:24:40.743Z,10.48
2018-01-25T09:27:06.964Z,11.12
2018-01-25T09:29:33.212Z,10.27
2018-01-25T09:31:59.489Z,7.37
2018-01-25T09:34:25.700Z,13.73
2018-01-25T09:36:51.963Z,13.82
2018-01-25T09:39:18.957Z,12.07
2018-01-25T09:41:45.221Z,9.38
2018-01-25T09:44:11.479Z,9.02
2018-01-25T09:46:37.742Z,7.10
2018-01-25T09:49:04.768Z,5.47
2018-01-25T09:51:31.036Z,8.95
2018-01-25T09:53:58.038Z,4.72
2018-01-25T09:56:24.344Z,7.00
2018-01-25T09:58:50.584Z,9.43
2018-01-25T10:01:17.937Z,6.25
2018-01-25T10:03:44.201Z,8.07
2018-01-25T10:06:10.443Z,8.98
2018-01-25T10:08:36.698Z,11.18
2018-01-25T10:11:02.915Z,15.38
2018-01-25T10:13:29.169Z,7.37
2018-01-25T10:15:55.397Z,6.03
2018-01-25T10:18:21.676Z,10.60
2018-01-25T10:20:47.914Z,5.12
2018-01-25T10:23:14.160Z,13.73
2018-01-25T10:25:40.401Z,7.53
2018-01-25T10:28:06.660Z,8.55
2018-01-25T10:30:32.935Z,7.97
2018-01-25T10:32:59.901Z,14.32
2018-01-25T10:35:26.909Z,14.38
2018-01-25T10:37:53.148Z,9.18
2018-01-25T10:40:19.412Z,8.55
2018-01-25T10:42:45.683Z,10.73
2018-01-25T10:45:11.957Z,3.72
2018-01-25T10:47:38.243Z,5.97
2018-01-25T10:50:05.259Z,6.28
2018-01-25T10:52:32.287Z,5.30
2018-01-25T10:54:58.555Z,3.55
2018-01-25T10:57:24.785Z,6.10
2018-01-25T10:59:51.065Z,11.27
2018-01-25T11:02:17.340Z,7.87
2018-01-25T11:04:44.336Z,10.13
2018-01-25T11:07:10.570Z,14.23
2018-01-25T11:09:36.846Z,7.00
2018-01-25T11:12:03.121Z,13.30
2018-01-25T11:14:30.157Z,7.50
2018-01-25T11:16:56.426Z,4.55
2018-01-25T11:19:22.679Z,8.98
2018-01-25T11:21:48.953Z,8.15
2018-01-25T11:24:15.192Z,5.82
2018-01-25T11:26:41.487Z,5.35
2018-01-25T11:29:07.746Z,14.15
2018-01-25T11:31:33.965Z,7.87
2018-01-25T11:34:00.226Z,16.02
2018-01-25T11:36:26.475Z,6.28
2018-01-25T11:38:52.763Z,4.68
2018-01-25T11:41:19.017Z,3.55
2018-01-25T11:43:46.038Z,8.13
2018-01-25T11:46:12.332Z,5.37
2018-01-25T11:48:38.604Z,11.50
2018-01-25T11:51:04.885Z,4.40
2018-01-25T11:53:31.146Z,6.05
2018-01-25T11:55:58.199Z,4.00
2018-01-25T11:58:25.206Z,44.43
2018-01-25T12:00:51.461Z,11.23
2018-01-25T12:03:18.515Z,10.50
2018-01-25T12:05:44.764Z,10.53
2018-01-25T12:08:11.041Z,23.70
2018-01-25T12:10:37.279Z,8.83
2018-01-25T12:13:04.263Z,9.00
2018-01-25T12:15:30.518Z,15.37
2018-01-25T12:17:56.766Z,11.87
2018-01-25T12:20:23.026Z,16.43
2018-01-25T12:22:49.278Z,10.47
2018-01-25T12:25:15.576Z,8.57
2018-01-25T12:27:41.811Z,5.53
2018-01-25T12:30:08.067Z,10.97
2018-01-25T12:32:34.300Z,4.70
2018-01-25T12:35:00.547Z,1.93
2018-01-25T12:37:26.847Z,6.00
2018-01-25T12:39:53.849Z,3.00
2018-01-25T12:42:20.116Z,3.87
2018-01-25T12:44:47.122Z,2.03
2018-01-25T12:47:15.041Z,2.20
2018-01-25T12:49:41.324Z,2.27
2018-01-25T12:52:07.569Z,5.03
2018-01-25T12:54:33.863Z,1.43
2018-01-25T12:57:00.107Z,1.60
2018-01-25T12:59:26.352Z,2.40
2018-01-25T13:01:52.604Z,3.53
2018-01-25T13:04:18.853Z,3.80
2018-01-25T13:06:45.422Z,3.07
2018-01-25T13:09:12.416Z,8.77
2018-01-25T13:11:38.643Z,6.30
2018-01-25T13:14:04.903Z,1.43
2018-01-25T13:16:31.176Z,3.17
2018-01-25T13:18:57.456Z,3.03
2018-01-25T13:21:24.450Z,5.00
2018-01-25T13:23:50.746Z,2.80
2018-01-25T13:26:17.717Z,3.37
2018-01-25T13:28:44.688Z,4.13
2018-01-25T13:31:10.955Z,12.47
2018-01-25T13:33:42.002Z,12.10
2018-01-25T13:36:08.252Z,2.27
2018-01-25T13:38:34.498Z,7.20
2018-01-25T13:41:00.958Z,11.13
2018-01-25T13:43:27.210Z,4.80
2018-01-25T13:45:53.496Z,9.00
2018-01-25T13:48:19.783Z,3.20
2018-01-25T13:50:46.081Z,4.27
2018-01-25T13:53:12.314Z,8.87
2018-01-25T13:55:38.622Z,10.37
2018-01-25T13:58:04.870Z,6.03
2018-01-25T14:00:31.171Z,8.90
2018-01-25T14:02:57.446Z,12.03
2018-01-25T14:05:23.708Z,17.83
2018-01-25T14:07:50.742Z,6.43
2018-01-25T14:10:17.042Z,6.40
2018-01-25T14:12:43.335Z,8.57
2018-01-25T14:15:09.576Z,4.57
2018-01-25T14:17:36.120Z,3.70
2018-01-25T14:20:02.394Z,4.90
2018-01-25T14:22:28.643Z,3.63
2018-01-25T14:24:54.948Z,10.13
2018-01-25T14:27:21.224Z,6.40
2018-01-25T14:29:47.502Z,7.80
2018-01-25T14:32:13.762Z,5.23
2018-01-25T14:34:40.004Z,5.23
2018-01-25T14:37:06.298Z,4.00
2018-01-25T14:39:32.552Z,4.80
2018-01-25T14:41:58.837Z,4.17
2018-01-25T14:44:25.855Z,3.80
2018-01-25T14:46:52.452Z,6.97
2018-01-25T14:49:19.446Z,4.93
2018-01-25T14:51:45.721Z,4.97
2018-01-25T14:54:12.049Z,11.27
2018-01-25T14:56:38.330Z,12.23
2018-01-25T14:59:04.599Z,12.63
2018-01-25T15:01:30.880Z,6.47
2018-01-25T15:03:57.157Z,11.00
2018-01-25T15:06:24.185Z,7.70
2018-01-25T15:08:50.466Z,7.43
2018-01-25T15:11:17.490Z,8.23
2018-01-25T15:13:43.740Z,6.10
2018-01-25T15:16:10.014Z,6.90
2018-01-25T15:18:36.290Z,9.40
2018-01-25T15:21:02.531Z,11.83
2018-01-25T15:23:28.834Z,6.80
2018-01-25T15:26:02.672Z,9.57
2018-01-25T15:28:28.994Z,5.47
2018-01-25T15:30:56.037Z,9.80
2018-01-25T15:33:23.061Z,8.43
2018-01-25T15:35:49.338Z,4.20
2018-01-25T15:38:16.347Z,7.53
2018-01-25T15:40:42.612Z,10.23
2018-01-25T15:43:08.876Z,5.70
2018-01-25T15:45:35.918Z,9.48
2018-01-25T15:48:02.199Z,8.93
2018-01-25T15:50:28.522Z,11.50
2018-01-25T15:52:55.540Z,9.55
2018-01-25T15:55:22.843Z,11.80
2018-01-25T15:57:50.053Z,4.45
2018-01-25T16:00:16.339Z,5.43
2018-01-25T16:02:42.616Z,8.93
2018-01-25T16:05:08.939Z,4.22
2018-01-25T16:07:35.968Z,6.93
2018-01-25T16:10:02.245Z,10.68
2018-01-25T16:12:29.277Z,3.65
2018-01-25T16:14:55.542Z,2.87
2018-01-25T16:17:22.579Z,3.15
2018-01-25T16:19:48.893Z,3.37
2018-01-25T16:22:15.181Z,7.07
2018-01-25T16:24:42.222Z,3.92
2018-01-25T16:27:08.515Z,3.50
2018-01-25T16:29:34.845Z,2.90
2018-01-25T16:32:01.131Z,3.25
2018-01-25T16:34:28.159Z,4.55
2018-01-25T16:36:54.464Z,10.88
2018-01-25T16:39:21.523Z,4.97
2018-01-25T16:41:47.801Z,9.15
2018-01-25T16:44:14.087Z,12.23
2018-01-25T16:46:40.364Z,8.57
2018-01-25T16:49:07.402Z,6.62
2018-01-25T16:51:33.671Z,6.37
2018-01-25T16:53:59.939Z,10.85
2018-01-25T16:56:26.213Z,6.45
2018-01-25T16:58:52.515Z,8.20
2018-01-25T17:01:18.793Z,6.00
2018-01-25T17:03:45.108Z,5.72
2018-01-25T17:06:11.421Z,5.95
2018-01-25T17:08:37.699Z,9.23
2018-01-25T17:11:03.982Z,8.05
2018-01-25T17:13:31.012Z,15.40
2018-01-25T17:15:57.344Z,14.90
2018-01-25T17:18:23.602Z,16.98
2018-01-25T17:20:49.880Z,19.77
2018-01-25T17:23:16.932Z,15.73
2018-01-25T17:25:44.011Z,21.65
2018-01-25T17:28:10.365Z,14.70
2018-01-25T17:30:36.667Z,25.05
2018-01-25T17:33:03.015Z,22.40
2018-01-25T17:35:30.052Z,12.52
2018-01-25T17:37:56.345Z,16.80
2018-01-25T17:40:22.699Z,8.95
2018-01-25T17:42:49.053Z,13.98
2018-01-25T17:45:15.375Z,12.37
2018-01-25T17:47:41.683Z,16.42
2018-01-25T17:50:07.989Z,13.20
2018-01-25T17:52:34.420Z,14.68
2018-01-25T17:55:00.758Z,13.62
2018-01-25T17:57:27.066Z,15.02
2018-01-25T17:59:54.140Z,12.80
2018-01-25T18:02:20.472Z,12.23
2018-01-25T18:04:47.569Z,15.13
2018-01-25T18:07:13.909Z,15.82
2018-01-25T18:09:40.246Z,18.83
2018-01-25T18:12:06.592Z,14.13
2018-01-25T18:14:32.925Z,14.15
2018-01-25T18:16:59.262Z,13.32
2018-01-25T18:19:25.626Z,11.38
2018-01-25T18:21:52.017Z,13.18
2018-01-25T18:24:18.378Z,11.25
2018-01-25T18:26:45.481Z,18.30
2018-01-25T18:29:11.842Z,15.80
2018-01-25T18:31:38.176Z,14.38
2018-01-25T18:34:04.601Z,19.85
2018-01-25T18:36:30.962Z,18.65
2018-01-25T18:38:57.282Z,19.35
2018-01-25T18:41:23.630Z,16.10
2018-01-25T18:43:50.041Z,16.25
2018-01-25T18:46:17.207Z,17.60
2018-01-25T18:48:44.323Z,15.25
2018-01-25T18:51:10.643Z,12.27
2018-01-25T18:53:37.020Z,17.70
2018-01-25T18:56:03.369Z,14.07
2018-01-25T18:58:29.724Z,15.23
2018-01-25T19:00:56.091Z,12.60
2018-01-25T19:03:22.447Z,12.68
2018-01-25T19:05:48.820Z,15.07
2018-01-25T19:08:15.219Z,16.10
2018-01-25T19:10:42.329Z,18.92
2018-01-25T19:13:08.695Z,15.35
2018-01-25T19:15:35.099Z,15.57
2018-01-25T19:18:01.536Z,18.85
2018-01-25T19:20:27.873Z,18.27
2018-01-25T19:22:54.303Z,18.37
2018-01-25T19:25:20.653Z,17.33
2018-01-25T19:27:47.026Z,26.40
2018-01-25T19:30:13.520Z,27.70
2018-01-25T19:32:40.702Z,24.75
2018-01-25T19:35:07.104Z,59.72
2018-01-25T19:37:33.491Z,60.85
2018-01-25T19:39:59.911Z,40.72
2018-01-25T19:42:27.052Z,25.77
2018-01-25T19:44:54.204Z,12.77
2018-01-25T19:47:20.591Z,13.40
2018-01-25T19:49:47.761Z,20.65
2018-01-25T19:52:14.424Z,17.35
2018-01-25T19:54:40.853Z,19.67
2018-01-25T19:57:07.974Z,25.05
2018-01-25T19:59:34.321Z,25.67
2018-01-25T20:02:00.674Z,26.15
2018-01-25T20:04:27.085Z,22.17
2018-01-25T20:06:53.421Z,28.17
2018-01-25T20:09:19.832Z,40.60
2018-01-25T20:11:46.300Z,55.65
2018-01-25T20:14:12.710Z,38.40
2018-01-25T20:16:39.156Z,52.50
2018-01-25T20:19:06.284Z,46.90
2018-01-25T20:21:32.771Z,41.72
2018-01-25T20:23:59.165Z,32.38
2018-01-25T20:26:25.575Z,35.40
2018-01-25T20:28:51.968Z,30.50
2018-01-25T20:31:18.375Z,30.83
2018-01-25T20:33:44.793Z,34.30
2018-01-25T20:36:11.923Z,29.95
2018-01-25T20:38:38.298Z,30.02
2018-01-25T20:41:04.983Z,40.03
2018-01-25T20:43:31.357Z,34.22
2018-01-25T20:45:57.704Z,29.35
2018-01-25T20:48:24.069Z,31.73
2018-01-25T20:50:51.190Z,34.75
2018-01-25T20:53:18.546Z,31.30
2018-01-25T20:55:45.010Z,34.33
2018-01-25T20:58:12.319Z,21.02
2018-01-25T21:00:39.401Z,17.52
2018-01-25T21:03:06.635Z,17.70
2018-01-25T21:05:33.060Z,17.50
2018-01-25T21:07:59.437Z,21.60
2018-01-25T21:10:26.544Z,16.52
2018-01-25T21:12:52.891Z,17.40
2018-01-25T21:15:19.277Z,20.05
2018-01-25T21:17:46.392Z,18.05
2018-01-25T21:20:12.724Z,18.30
2018-01-25T21:22:39.903Z,16.87
2018-01-25T21:25:06.232Z,17.87
2018-01-25T21:27:32.715Z,22.17
2018-01-25T21:29:59.102Z,19.50
2018-01-25T21:32:25.449Z,23.70
2018-01-25T21:34:52.703Z,18.75
2018-01-25T21:37:19.203Z,14.95
2018-01-25T21:39:45.535Z,18.80
2018-01-25T21:42:11.815Z,16.77
2018-01-25T21:44:39.207Z,16.20
2018-01-25T21:47:05.510Z,17.05
2018-01-25T21:49:32.570Z,19.40
2018-01-25T21:51:59.624Z,22.33
2018-01-25T21:54:25.885Z,15.48
2018-01-25T21:56:52.948Z,14.25
2018-01-25T21:59:19.990Z,33.75
2018-01-25T22:01:46.318Z,28.17
2018-01-25T22:04:12.598Z,29.65
2018-01-25T22:06:38.902Z,24.42
2018-01-25T22:09:05.210Z,31.30
2018-01-25T22:11:31.595Z,28.70
2018-01-25T22:13:57.892Z,22.75
2018-01-25T22:16:24.178Z,33.08
2018-01-25T22:18:50.510Z,28.20
2018-01-25T22:21:16.792Z,26.00
2018-01-25T22:23:43.800Z,27.00
2018-01-25T22:26:10.064Z,21.42
2018-01-25T22:28:36.352Z,27.95
2018-01-25T22:31:02.596Z,22.10
2018-01-25T22:33:28.873Z,19.05
2018-01-25T22:35:55.136Z,21.60
2018-01-25T22:38:21.426Z,19.05
2018-01-25T22:40:47.701Z,19.48
2018-01-25T22:43:13.985Z,27.52
2018-01-25T22:45:41.050Z,22.55
2018-01-25T22:48:07.323Z,21.35
2018-01-25T22:50:33.609Z,24.12
2018-01-25T22:53:00.602Z,28.17
2018-01-25T22:55:26.931Z,22.02
2018-01-25T22:57:53.204Z,21.27
2018-01-25T23:00:31.589Z,24.40
2018-01-25T23:02:58.588Z,19.95
2018-01-25T23:05:24.869Z,25.85
2018-01-25T23:07:51.191Z,18.30
2018-01-25T23:10:17.486Z,18.58
2018-01-25T23:12:43.820Z,19.95
2018-01-25T23:15:10.832Z,20.65
2018-01-25T23:17:37.100Z,19.98
2018-01-25T23:20:03.356Z,16.67
2018-01-25T23:22:30.337Z,19.92
2018-01-25T23:24:56.650Z,22.77
2018-01-25T23:27:22.901Z,21.73
2018-01-25T23:29:49.899Z,25.55
2018-01-25T23:32:16.219Z,23.12
2018-01-25T23:34:42.473Z,25.00
2018-01-25T23:37:08.726Z,24.02
2018-01-25T23:39:35.009Z,24.30
2018-01-25T23:42:01.309Z,24.65
2018-01-25T23:44:27.541Z,26.40
2018-01-25T23:46:53.827Z,31.52
2018-01-25T23:49:20.071Z,23.23
2018-01-25T23:51:47.051Z,20.23
2018-01-25T23:54:13.357Z,27.70
2018-01-25T23:56:39.604Z,19.20
2018-01-25T23:59:05.902Z,26.60
